createdAt,value
2023-01-22T00:01:51.971Z,16.87
2023-01-22T00:04:24.660Z,16.83
2023-01-22T00:06:57.535Z,16.81
2023-01-22T00:09:30.811Z,16.81
2023-01-22T00:12:03.515Z,16.81
2023-01-22T00:14:36.541Z,16.76
2023-01-22T00:17:15.990Z,16.75
2023-01-22T00:19:48.531Z,16.73
2023-01-22T00:22:22.116Z,16.72
2023-01-22T00:24:54.763Z,16.69
2023-01-22T00:27:27.454Z,16.65
2023-01-22T00:30:00.004Z,16.62
2023-01-22T00:32:32.811Z,16.64
2023-01-22T00:35:05.739Z,16.62
2023-01-22T00:37:38.626Z,16.57
2023-01-22T00:40:12.195Z,16.55
2023-01-22T00:42:45.270Z,16.57
2023-01-22T00:45:17.934Z,16.56
2023-01-22T00:47:51.487Z,16.53
2023-01-22T00:50:24.051Z,16.52
2023-01-22T00:52:57.751Z,16.50
2023-01-22T00:55:31.143Z,16.42
2023-01-22T00:58:03.804Z,16.42
2023-01-22T01:00:36.369Z,16.43
2023-01-22T01:03:26.939Z,16.41
2023-01-22T01:06:06.230Z,16.40
2023-01-22T01:08:42.221Z,16.39
2023-01-22T01:11:22.413Z,16.37
2023-01-22T01:13:55.131Z,16.34
2023-01-22T01:16:30.819Z,16.33
2023-01-22T01:19:10.167Z,16.30
2023-01-22T01:21:43.787Z,16.29
2023-01-22T01:24:16.454Z,16.26
2023-01-22T01:26:49.048Z,16.24
2023-01-22T01:29:21.710Z,16.25
2023-01-22T01:31:54.760Z,16.23
2023-01-22T01:34:27.384Z,16.22
2023-01-22T01:36:59.971Z,16.19
2023-01-22T01:39:32.820Z,16.15
2023-01-22T01:42:05.521Z,16.09
2023-01-22T01:44:40.375Z,16.15
2023-01-22T01:47:35.716Z,16.15
2023-01-22T01:50:09.045Z,16.12
2023-01-22T01:52:41.660Z,16.11
2023-01-22T01:55:21.873Z,16.06
2023-01-22T01:58:02.598Z,16.06
2023-01-22T02:00:38.988Z,16.05
2023-01-22T02:03:11.740Z,16.04
2023-01-22T02:05:44.446Z,16.00
2023-01-22T02:08:18.145Z,15.92
2023-01-22T02:10:51.827Z,15.99
2023-01-22T02:13:32.280Z,15.97
2023-01-22T02:16:06.026Z,15.94
2023-01-22T02:18:38.835Z,15.93
2023-01-22T02:21:36.372Z,15.98
2023-01-22T02:24:16.408Z,15.93
2023-01-22T02:26:49.106Z,15.91
2023-01-22T02:29:22.990Z,15.89
2023-01-22T02:31:55.914Z,15.88
2023-01-22T02:34:28.577Z,15.85
2023-01-22T02:37:01.349Z,15.86
2023-01-22T02:39:34.324Z,15.82
2023-01-22T02:42:08.906Z,15.83
2023-01-22T02:44:41.572Z,15.77
2023-01-22T02:47:14.212Z,15.80
2023-01-22T02:49:46.789Z,15.79
2023-01-22T02:52:19.365Z,15.74
2023-01-22T02:54:51.934Z,15.76
2023-01-22T02:57:24.543Z,15.69
2023-01-22T02:59:58.288Z,15.73
2023-01-22T03:02:31.071Z,15.73
2023-01-22T03:05:04.758Z,15.72
2023-01-22T03:07:45.142Z,15.66
2023-01-22T03:10:20.869Z,15.68
2023-01-22T03:13:12.400Z,15.65
2023-01-22T03:16:04.062Z,15.66
2023-01-22T03:18:55.199Z,15.65
2023-01-22T03:21:27.905Z,15.64
2023-01-22T03:24:00.601Z,15.62
2023-01-22T03:26:33.098Z,15.57
2023-01-22T03:29:05.665Z,15.57
2023-01-22T03:31:38.488Z,15.56
2023-01-22T03:34:11.057Z,15.57
2023-01-22T03:36:44.027Z,15.56
2023-01-22T03:39:17.028Z,15.54
2023-01-22T03:41:49.740Z,15.53
2023-01-22T03:44:22.446Z,15.53
2023-01-22T03:46:55.075Z,15.48
2023-01-22T03:49:27.661Z,15.48
2023-01-22T03:52:00.362Z,15.49
2023-01-22T03:54:32.945Z,15.43
2023-01-22T03:57:05.606Z,15.47
2023-01-22T03:59:38.299Z,15.42
2023-01-22T04:02:10.901Z,15.44
2023-01-22T04:04:44.659Z,15.41
2023-01-22T04:07:17.266Z,15.41
2023-01-22T04:09:49.902Z,15.42
2023-01-22T04:12:22.562Z,15.41
2023-01-22T04:14:55.139Z,15.38
2023-01-22T04:17:27.808Z,15.37
2023-01-22T04:20:00.477Z,15.33
2023-01-22T04:22:33.185Z,15.32
2023-01-22T04:25:06.625Z,15.30
2023-01-22T04:27:39.210Z,15.34
2023-01-22T04:30:12.609Z,15.31
2023-01-22T04:32:45.306Z,15.31
2023-01-22T04:35:17.861Z,15.29
2023-01-22T04:37:50.494Z,15.29
2023-01-22T04:40:23.488Z,15.29
2023-01-22T04:42:56.209Z,15.27
2023-01-22T04:45:28.983Z,15.25
2023-01-22T04:48:02.326Z,15.19
2023-01-22T04:50:35.412Z,15.28
2023-01-22T04:53:07.975Z,15.25
2023-01-22T04:55:42.083Z,15.27
2023-01-22T04:58:14.685Z,15.23
2023-01-22T05:00:47.362Z,15.23
2023-01-22T05:03:19.920Z,15.20
2023-01-22T05:05:52.429Z,15.22
2023-01-22T05:08:25.061Z,15.19
2023-01-22T05:11:02.639Z,15.20
2023-01-22T05:13:35.302Z,15.15
2023-01-22T05:16:08.243Z,15.19
2023-01-22T05:18:40.914Z,15.19
2023-01-22T05:21:13.539Z,15.18
2023-01-22T05:23:46.092Z,15.14
2023-01-22T05:26:18.815Z,15.12
2023-01-22T05:28:51.535Z,15.14
2023-01-22T05:31:24.245Z,15.15
2023-01-22T05:33:57.042Z,15.09
2023-01-22T05:36:30.153Z,15.12
2023-01-22T05:39:02.807Z,15.13
2023-01-22T05:41:35.646Z,15.09
2023-01-22T05:44:12.673Z,15.09
2023-01-22T05:46:45.233Z,15.08
2023-01-22T05:49:18.189Z,15.03
2023-01-22T05:51:50.878Z,15.03
2023-01-22T05:54:23.572Z,15.03
2023-01-22T05:56:56.120Z,15.12
2023-01-22T05:59:28.700Z,15.13
2023-01-22T06:02:02.124Z,15.15
2023-01-22T06:04:34.882Z,15.20
2023-01-22T06:07:07.552Z,15.25
2023-01-22T06:09:40.214Z,15.29
2023-01-22T06:12:13.135Z,15.32
2023-01-22T06:14:45.793Z,15.38
2023-01-22T06:17:18.429Z,15.44
2023-01-22T06:19:51.124Z,15.51
2023-01-22T06:22:23.873Z,15.54
2023-01-22T06:24:56.620Z,15.61
2023-01-22T06:27:29.262Z,15.68
2023-01-22T06:30:02.090Z,15.71
2023-01-22T06:32:34.649Z,15.81
2023-01-22T06:35:07.832Z,15.88
2023-01-22T06:37:40.363Z,15.92
2023-01-22T06:40:13.445Z,16.01
2023-01-22T06:42:46.015Z,16.08
2023-01-22T06:45:18.656Z,16.11
2023-01-22T06:47:51.326Z,16.21
2023-01-22T06:50:23.891Z,16.24
2023-01-22T06:52:56.494Z,16.35
2023-01-22T06:55:29.094Z,16.44
2023-01-22T06:58:01.744Z,16.42
2023-01-22T07:00:34.291Z,16.52
2023-01-22T07:03:08.505Z,16.55
2023-01-22T07:05:41.177Z,16.61
2023-01-22T07:08:15.699Z,16.66
2023-01-22T07:10:48.367Z,16.69
2023-01-22T07:13:21.452Z,16.71
2023-01-22T07:15:54.502Z,16.73
2023-01-22T07:18:27.183Z,16.76
2023-01-22T07:21:05.481Z,16.79
2023-01-22T07:23:38.183Z,16.79
2023-01-22T07:26:10.848Z,16.83
2023-01-22T07:28:45.125Z,16.80
2023-01-22T07:31:17.567Z,16.96
2023-01-22T07:33:50.091Z,16.87
2023-01-22T07:36:23.215Z,16.86
2023-01-22T07:38:55.830Z,16.87
2023-01-22T07:41:28.375Z,16.88
2023-01-22T07:44:01.098Z,16.88
2023-01-22T07:46:35.779Z,16.88
2023-01-22T07:49:08.315Z,16.89
2023-01-22T07:51:40.908Z,16.90
2023-01-22T07:54:13.684Z,16.92
2023-01-22T07:56:46.510Z,16.93
2023-01-22T07:59:19.194Z,16.95
2023-01-22T08:01:54.727Z,16.95
2023-01-22T08:04:27.499Z,16.92
2023-01-22T08:07:00.163Z,16.94
2023-01-22T08:09:32.870Z,16.99
2023-01-22T08:12:05.609Z,16.98
2023-01-22T08:14:38.280Z,17.02
2023-01-22T08:17:10.847Z,17.03
2023-01-22T08:19:43.526Z,17.03
2023-01-22T08:22:16.022Z,17.04
2023-01-22T08:24:48.668Z,17.06
2023-01-22T08:27:21.963Z,17.09
2023-01-22T08:29:55.382Z,17.09
2023-01-22T08:32:28.068Z,17.11
2023-01-22T08:35:00.719Z,17.14
2023-01-22T08:37:33.398Z,17.16
2023-01-22T08:40:07.703Z,17.17
2023-01-22T08:42:40.798Z,17.29
2023-01-22T08:45:13.365Z,17.22
2023-01-22T08:47:46.307Z,17.23
2023-01-22T08:50:19.258Z,17.24
2023-01-22T08:52:52.079Z,17.25
2023-01-22T08:55:27.639Z,17.22
2023-01-22T08:58:00.327Z,17.29
2023-01-22T09:00:33.005Z,17.30
2023-01-22T09:03:06.584Z,17.29
2023-01-22T09:05:40.273Z,17.32
2023-01-22T09:08:13.264Z,17.35
2023-01-22T09:10:45.862Z,17.29
2023-01-22T09:13:27.580Z,17.37
2023-01-22T09:16:00.248Z,17.34
2023-01-22T09:18:36.043Z,17.37
2023-01-22T09:21:08.774Z,17.35
2023-01-22T09:23:41.630Z,17.43
2023-01-22T09:26:14.231Z,17.41
2023-01-22T09:28:46.781Z,17.40
2023-01-22T09:31:19.561Z,17.44
2023-01-22T09:33:52.354Z,17.48
2023-01-22T09:36:25.076Z,17.49
2023-01-22T09:38:57.950Z,17.50
2023-01-22T09:41:46.792Z,17.53
2023-01-22T09:44:40.411Z,17.53
2023-01-22T09:47:21.772Z,17.54
2023-01-22T09:50:02.773Z,17.55
2023-01-22T09:52:40.229Z,17.56
2023-01-22T09:55:16.501Z,17.58
2023-01-22T09:57:53.701Z,17.57
2023-01-22T10:00:44.462Z,17.62
2023-01-22T10:03:39.268Z,17.64
2023-01-22T10:06:22.745Z,17.63
2023-01-22T10:09:08.160Z,17.64
2023-01-22T10:11:41.077Z,17.63
2023-01-22T10:14:18.634Z,17.63
2023-01-22T10:16:51.498Z,17.61
2023-01-22T10:19:34.761Z,17.63
2023-01-22T10:22:19.064Z,17.66
2023-01-22T10:24:53.279Z,17.69
2023-01-22T10:27:36.325Z,17.84
2023-01-22T10:30:22.300Z,17.75
2023-01-22T10:33:07.427Z,17.75
2023-01-22T10:35:49.627Z,17.76
2023-01-22T10:38:25.083Z,17.76
2023-01-22T10:41:04.258Z,17.76
2023-01-22T10:43:39.181Z,17.76
2023-01-22T10:46:20.979Z,17.78
2023-01-22T10:49:01.971Z,17.79
2023-01-22T10:51:42.353Z,17.79
2023-01-22T10:54:33.184Z,17.79
2023-01-22T10:57:27.511Z,17.82
2023-01-22T11:00:06.694Z,17.83
2023-01-22T11:02:44.834Z,17.80
2023-01-22T11:05:17.335Z,17.81
2023-01-22T11:08:06.881Z,17.78
2023-01-22T11:10:56.767Z,17.83
2023-01-22T11:13:49.895Z,17.79
2023-01-22T11:16:25.437Z,17.73
2023-01-22T11:19:36.260Z,17.78
2023-01-22T11:22:28.828Z,17.81
2023-01-22T11:25:02.997Z,17.77
2023-01-22T11:28:02.520Z,17.89
2023-01-22T11:30:40.903Z,17.78
2023-01-22T11:34:00.931Z,17.81
2023-01-22T11:36:45.255Z,17.75
2023-01-22T11:39:43.467Z,17.75
2023-01-22T11:42:54.049Z,17.80
2023-01-22T11:46:01.562Z,17.76
2023-01-22T11:48:42.815Z,17.79
2023-01-22T11:51:47.767Z,17.77
2023-01-22T11:54:39.113Z,17.80
2023-01-22T11:57:38.350Z,17.80
2023-01-22T12:00:35.330Z,17.81
2023-01-22T12:03:48.493Z,17.81
2023-01-22T12:07:07.922Z,17.81
2023-01-22T12:09:55.409Z,17.83
2023-01-22T12:12:55.776Z,17.85
2023-01-22T12:16:00.998Z,17.88
2023-01-22T12:18:42.300Z,17.97
2023-01-22T12:21:41.819Z,17.87
2023-01-22T12:24:31.650Z,17.87
2023-01-22T12:27:12.612Z,17.86
2023-01-22T12:30:21.823Z,17.90
2023-01-22T12:33:01.013Z,17.87
2023-01-22T12:35:34.251Z,17.88
2023-01-22T12:38:30.189Z,17.90
2023-01-22T12:41:24.584Z,17.88
2023-01-22T12:44:24.313Z,17.89
2023-01-22T12:47:29.734Z,17.92
2023-01-22T12:50:04.732Z,17.88
2023-01-22T12:52:39.603Z,17.89
2023-01-22T12:55:44.321Z,17.96
2023-01-22T12:58:28.018Z,17.91
2023-01-22T13:01:11.608Z,17.91
2023-01-22T13:03:44.317Z,17.91
2023-01-22T13:06:39.941Z,17.95
2023-01-22T13:09:27.480Z,17.95
2023-01-22T13:12:10.970Z,17.92
2023-01-22T13:14:46.939Z,17.91
2023-01-22T13:17:24.914Z,17.90
2023-01-22T13:19:58.222Z,17.90
2023-01-22T13:22:32.979Z,17.90
2023-01-22T13:25:05.994Z,17.90
2023-01-22T13:27:45.994Z,17.91
2023-01-22T13:30:22.751Z,17.94
2023-01-22T13:33:15.639Z,17.97
2023-01-22T13:35:48.217Z,17.95
2023-01-22T13:38:27.632Z,17.94
2023-01-22T13:41:24.626Z,17.95
2023-01-22T13:53:03.684Z,17.91
2023-01-22T13:55:42.563Z,17.93
2023-01-22T14:01:36.105Z,17.94
2023-01-22T14:15:40.901Z,18.06
2023-01-22T14:34:52.627Z,17.99
2023-01-22T14:37:25.365Z,18.01
2023-01-22T14:39:58.917Z,18.02
2023-01-22T14:42:31.470Z,18.03
2023-01-22T14:45:05.039Z,18.03
2023-01-22T14:47:37.642Z,18.05
2023-01-22T14:50:11.384Z,18.04
2023-01-22T14:52:44.148Z,18.03
2023-01-22T14:55:17.801Z,18.05
2023-01-22T15:00:57.081Z,18.04
2023-01-22T15:03:30.723Z,18.00
2023-01-22T15:06:09.946Z,18.03
2023-01-22T15:08:42.697Z,18.05
2023-01-22T15:14:04.725Z,18.01
2023-01-22T15:16:46.827Z,18.02
2023-01-22T15:19:19.582Z,17.98
2023-01-22T15:21:54.419Z,18.04
2023-01-22T15:24:27.689Z,18.00
2023-01-22T15:27:00.511Z,18.07
2023-01-22T15:29:33.460Z,18.05
2023-01-22T15:32:06.043Z,18.03
2023-01-22T15:34:38.643Z,18.06
2023-01-22T15:37:13.816Z,18.02
2023-01-22T15:39:46.457Z,18.05
2023-01-22T15:42:19.679Z,18.02
2023-01-22T15:44:58.643Z,18.06
2023-01-22T15:47:32.211Z,18.07
2023-01-22T15:50:14.291Z,18.02
2023-01-22T15:52:47.171Z,18.01
2023-01-22T15:55:20.654Z,18.06
2023-01-22T15:57:53.227Z,18.05
2023-01-22T16:00:27.561Z,18.05
2023-01-22T16:03:01.334Z,17.98
2023-01-22T16:05:33.966Z,18.03
2023-01-22T16:08:06.900Z,18.01
2023-01-22T16:10:39.405Z,18.06
2023-01-22T16:13:14.240Z,17.97
2023-01-22T16:16:04.320Z,18.03
2023-01-22T16:18:37.367Z,18.06
2023-01-22T16:21:11.619Z,17.96
2023-01-22T16:23:48.993Z,18.17
2023-01-22T16:26:26.772Z,18.02
2023-01-22T16:29:04.426Z,17.96
2023-01-22T16:31:37.921Z,17.94
2023-01-22T16:34:21.051Z,17.96
2023-01-22T16:37:02.009Z,18.01
2023-01-22T16:39:36.913Z,18.03
2023-01-22T16:42:18.691Z,17.95
2023-01-22T16:44:51.391Z,17.99
2023-01-22T16:47:50.199Z,18.02
2023-01-22T16:50:28.448Z,18.02
2023-01-22T16:53:01.320Z,17.97
2023-01-22T16:55:45.353Z,17.98
2023-01-22T16:58:19.051Z,17.95
2023-01-22T17:00:57.630Z,17.99
2023-01-22T17:03:31.089Z,17.96
2023-01-22T17:06:04.303Z,17.95
2023-01-22T17:08:37.359Z,17.94
2023-01-22T17:11:16.748Z,17.95
2023-01-22T17:13:55.766Z,18.01
2023-01-22T17:16:31.317Z,17.92
2023-01-22T17:19:04.782Z,17.96
2023-01-22T17:21:51.607Z,17.99
2023-01-22T17:24:26.023Z,17.99
2023-01-22T17:27:14.226Z,17.99
2023-01-22T17:29:47.128Z,18.00
2023-01-22T17:32:22.496Z,17.91
2023-01-22T17:34:55.194Z,17.94
2023-01-22T17:37:42.787Z,17.92
2023-01-22T17:40:15.704Z,17.99
2023-01-22T17:42:54.647Z,17.95
2023-01-22T17:45:27.267Z,17.95
2023-01-22T17:48:12.254Z,17.95
2023-01-22T17:50:44.863Z,17.95
2023-01-22T17:53:29.268Z,17.91
2023-01-22T17:56:24.257Z,17.94
2023-01-22T17:59:00.306Z,17.96
2023-01-22T18:01:38.170Z,17.95
2023-01-22T18:04:13.190Z,17.97
2023-01-22T18:06:53.831Z,17.92
2023-01-22T18:09:26.592Z,17.96
2023-01-22T18:12:02.946Z,17.90
2023-01-22T18:14:39.371Z,17.88
2023-01-22T18:17:23.289Z,17.92
2023-01-22T18:19:55.940Z,17.97
2023-01-22T18:22:37.848Z,17.98
2023-01-22T18:25:12.534Z,17.90
2023-01-22T18:27:50.835Z,17.96
2023-01-22T18:30:23.429Z,17.92
2023-01-22T18:33:05.260Z,17.95
2023-01-22T18:35:38.081Z,17.93
2023-01-22T18:38:26.485Z,17.93
2023-01-22T18:41:24.794Z,18.02
2023-01-22T18:44:01.083Z,17.95
2023-01-22T18:46:40.161Z,17.96
2023-01-22T18:49:18.639Z,17.95
2023-01-22T18:51:51.319Z,17.94
2023-01-22T18:54:23.993Z,17.95
2023-01-22T18:56:57.647Z,17.95
2023-01-22T18:59:30.288Z,17.94
2023-01-22T19:02:02.973Z,17.95
2023-01-22T19:04:35.713Z,17.94
2023-01-22T19:07:08.317Z,17.93
2023-01-22T19:09:41.373Z,17.93
2023-01-22T19:12:15.441Z,17.93
2023-01-22T19:14:49.069Z,17.90
2023-01-22T19:17:21.821Z,17.92
2023-01-22T19:19:54.401Z,17.90
2023-01-22T19:22:28.477Z,17.90
2023-01-22T19:25:02.802Z,17.89
2023-01-22T19:27:35.559Z,17.90
2023-01-22T19:30:10.281Z,17.89
2023-01-22T19:32:42.871Z,17.90
2023-01-22T19:35:15.761Z,17.88
2023-01-22T19:38:00.454Z,17.83
2023-01-22T19:40:33.143Z,17.86
2023-01-22T19:43:19.484Z,17.85
2023-01-22T19:45:52.382Z,17.81
2023-01-22T19:48:27.964Z,17.83
2023-01-22T19:51:04.022Z,17.81
2023-01-22T19:53:47.720Z,17.78
2023-01-22T19:56:45.508Z,17.88
2023-01-22T19:59:22.151Z,17.85
2023-01-22T20:02:01.282Z,17.82
2023-01-22T20:04:35.771Z,17.84
2023-01-22T20:07:14.747Z,17.77
2023-01-22T20:09:47.392Z,17.76
2023-01-22T20:15:07.828Z,17.80
2023-01-22T20:17:52.433Z,17.81
2023-01-22T20:20:26.216Z,17.92
2023-01-22T20:23:10.764Z,17.83
2023-01-22T20:25:43.598Z,17.92
2023-01-22T20:28:18.775Z,17.79
2023-01-22T20:31:05.648Z,17.80
2023-01-22T20:33:38.674Z,17.76
2023-01-22T20:36:15.309Z,17.77
2023-01-22T20:38:52.563Z,17.75
2023-01-22T20:41:30.830Z,17.75
2023-01-22T20:44:03.541Z,17.73
2023-01-22T20:46:37.588Z,17.74
2023-01-22T20:49:11.622Z,17.73
2023-01-22T20:51:44.331Z,17.73
2023-01-22T20:54:18.334Z,17.73
2023-01-22T20:56:50.939Z,17.71
2023-01-22T20:59:25.414Z,17.71
2023-01-22T21:01:59.068Z,17.70
2023-01-22T21:04:31.763Z,17.69
2023-01-22T21:07:04.414Z,17.67
2023-01-22T21:09:39.303Z,17.69
2023-01-22T21:12:13.273Z,17.62
2023-01-22T21:14:45.938Z,17.62
2023-01-22T21:17:24.078Z,17.67
2023-01-22T21:19:57.987Z,17.61
2023-01-22T21:22:30.688Z,17.62
2023-01-22T21:25:09.011Z,17.64
2023-01-22T21:27:41.618Z,17.66
2023-01-22T21:30:27.770Z,17.64
2023-01-22T21:33:00.394Z,17.64
2023-01-22T21:35:49.289Z,17.66
2023-01-22T21:38:21.862Z,17.66
2023-01-22T21:41:12.700Z,17.65
2023-01-22T21:44:06.129Z,17.65
2023-01-22T21:46:43.796Z,17.65
2023-01-22T21:49:22.545Z,17.63
2023-01-22T21:52:05.136Z,17.64
2023-01-22T21:54:41.483Z,17.61
2023-01-22T21:57:17.099Z,17.62
2023-01-22T21:59:49.742Z,17.62
2023-01-22T22:02:22.568Z,17.62
2023-01-22T22:04:55.413Z,17.62
2023-01-22T22:07:27.912Z,17.61
2023-01-22T22:10:00.559Z,17.60
2023-01-22T22:12:33.293Z,17.59
2023-01-22T22:15:06.938Z,17.56
2023-01-22T22:17:39.545Z,17.62
2023-01-22T22:20:12.669Z,17.61
2023-01-22T22:22:45.902Z,17.61
2023-01-22T22:25:18.465Z,17.60
2023-01-22T22:27:51.176Z,17.60
2023-01-22T22:30:24.168Z,17.53
2023-01-22T22:32:58.776Z,17.60
2023-01-22T22:35:31.645Z,17.59
2023-01-22T22:38:04.243Z,17.57
2023-01-22T22:40:36.742Z,17.59
2023-01-22T22:43:09.441Z,17.57
2023-01-22T22:45:42.123Z,17.59
2023-01-22T22:48:15.278Z,17.57
2023-01-22T22:50:47.944Z,17.58
2023-01-22T22:53:20.824Z,17.56
2023-01-22T22:55:53.447Z,17.47
2023-01-22T22:58:26.023Z,17.54
2023-01-22T23:00:58.894Z,17.53
2023-01-22T23:03:33.704Z,17.53
2023-01-22T23:06:20.124Z,17.50
2023-01-22T23:08:56.606Z,17.49
2023-01-22T23:11:32.492Z,17.48
2023-01-22T23:14:08.449Z,17.47
2023-01-22T23:16:43.075Z,17.44
2023-01-22T23:19:27.402Z,17.43
2023-01-22T23:22:01.209Z,17.42
2023-01-22T23:24:33.878Z,17.39
2023-01-22T23:27:06.395Z,17.38
2023-01-22T23:29:38.891Z,17.36
2023-01-22T23:32:11.439Z,17.33
2023-01-22T23:34:43.936Z,17.31
2023-01-22T23:37:16.433Z,17.27
2023-01-22T23:39:51.131Z,17.27
2023-01-22T23:42:34.098Z,17.24
2023-01-22T23:45:09.204Z,17.22
2023-01-22T23:47:52.268Z,17.16
2023-01-22T23:50:46.782Z,17.24
2023-01-22T23:53:21.728Z,17.15
2023-01-22T23:56:02.393Z,17.15
